createdAt,value
2019-04-22T00:00:18.002Z,9.20
2019-04-22T00:02:54.484Z,9.20
2019-04-22T00:05:42.842Z,9.20
2019-04-22T00:08:20.028Z,9.20
2019-04-22T00:10:54.005Z,9.10
2019-04-22T00:13:25.947Z,9.20
2019-04-22T00:15:47.838Z,9.20
2019-04-22T00:18:36.204Z,9.10
2019-04-22T00:21:04.762Z,9.10
2019-04-22T00:23:37.350Z,9.10
2019-04-22T00:26:09.763Z,9.10
2019-04-22T00:28:43.717Z,9.10
2019-04-22T00:31:26.839Z,9.00
2019-04-22T00:33:59.148Z,9.00
2019-04-22T00:36:35.256Z,9.00
2019-04-22T00:39:07.089Z,9.00
2019-04-22T00:41:43.844Z,8.90
2019-04-22T00:44:15.726Z,8.90
2019-04-22T00:46:45.980Z,9.00
2019-04-22T00:49:58.242Z,8.90
2019-04-22T00:51:55.526Z,9.00
2019-04-22T00:54:22.152Z,9.00
2019-04-22T00:56:55.447Z,9.00
2019-04-22T00:59:23.584Z,9.00
2019-04-22T01:02:00.912Z,9.00
2019-04-22T01:04:37.495Z,8.90
2019-04-22T01:07:09.442Z,8.90
2019-04-22T01:09:40.158Z,8.90
2019-04-22T01:12:14.131Z,8.90
2019-04-22T01:14:41.701Z,8.90
2019-04-22T01:17:11.662Z,8.90
2019-04-22T01:19:51.874Z,8.90
2019-04-22T01:22:17.401Z,8.80
2019-04-22T01:24:50.225Z,8.80
2019-04-22T01:27:19.085Z,8.70
2019-04-22T01:29:46.815Z,8.70
2019-04-22T01:32:13.986Z,8.80
2019-04-22T01:34:53.781Z,8.70
2019-04-22T01:37:32.911Z,8.80
2019-04-22T01:40:12.712Z,8.70
2019-04-22T01:42:48.822Z,8.70
2019-04-22T01:45:19.309Z,8.70
2019-04-22T01:50:24.049Z,8.50
2019-04-22T01:52:56.309Z,8.60
2019-04-22T01:55:32.508Z,8.60
2019-04-22T01:57:56.673Z,8.60
2019-04-22T02:00:32.527Z,8.50
2019-04-22T02:03:04.148Z,8.50
2019-04-22T02:05:30.039Z,8.50
2019-04-22T02:08:14.176Z,8.50
2019-04-22T02:10:44.586Z,8.40
2019-04-22T02:13:20.056Z,8.40
2019-04-22T02:15:48.005Z,8.50
2019-04-22T02:20:48.810Z,8.40
2019-04-22T02:23:45.174Z,8.30
2019-04-22T02:28:45.862Z,8.30
2019-04-22T02:36:22.747Z,8.20
2019-04-22T02:41:28.432Z,8.20
2019-04-22T02:46:58.971Z,8.10
2019-04-22T02:51:28.202Z,8.00
2019-04-22T02:59:20.106Z,8.00
2019-04-22T03:06:42.850Z,8.20
2019-04-22T03:10:38.526Z,8.30
2019-04-22T03:12:02.765Z,8.30
2019-04-22T03:14:22.693Z,8.30
2019-04-22T03:19:47.791Z,8.30
2019-04-22T03:22:00.564Z,8.20
2019-04-22T03:27:08.149Z,8.40
2019-04-22T03:30:36.473Z,8.30
2019-04-22T03:45:28.419Z,8.70
2019-04-22T04:21:09.161Z,13.30
2019-04-22T04:31:22.275Z,14.00
2019-04-22T04:33:25.945Z,14.60
2019-04-22T04:36:11.378Z,14.50
2019-04-22T04:38:28.916Z,15.20
2019-04-22T04:41:06.309Z,15.40
2019-04-22T04:48:53.742Z,15.50
2019-04-22T04:53:50.074Z,15.70
2019-04-22T04:56:20.852Z,17.10
2019-04-22T05:01:23.286Z,17.80
2019-04-22T05:06:37.827Z,19.00
2019-04-22T05:11:35.321Z,19.10
2019-04-22T05:14:06.068Z,19.00
2019-04-22T05:16:42.832Z,19.60
2019-04-22T05:19:13.381Z,18.30
2019-04-22T05:21:31.024Z,19.30
2019-04-22T05:26:44.791Z,19.40
2019-04-22T05:29:11.079Z,19.70
2019-04-22T05:34:17.399Z,20.20
2019-04-22T05:36:48.033Z,20.00
2019-04-22T05:39:16.779Z,19.80
2019-04-22T05:41:59.680Z,19.70
2019-04-22T05:46:53.235Z,19.00
2019-04-22T05:54:35.187Z,18.40
2019-04-22T05:59:42.300Z,20.00
2019-04-22T06:02:16.392Z,21.10
2019-04-22T06:04:45.028Z,20.50
2019-04-22T06:07:13.432Z,19.70
2019-04-22T09:23:45.210Z,22.10
2019-04-22T09:26:15.435Z,22.40
2019-04-22T09:28:54.194Z,22.40
2019-04-22T09:31:22.068Z,22.20
2019-04-22T09:33:49.215Z,22.70
2019-04-22T09:36:31.729Z,23.00
2019-04-22T09:39:12.312Z,24.00
2019-04-22T09:41:31.509Z,22.70
2019-04-22T09:44:19.066Z,22.60
2019-04-22T09:49:11.983Z,21.70
2019-04-22T09:51:45.113Z,22.50
2019-04-22T09:56:51.743Z,21.40
2019-04-22T09:59:20.900Z,21.20
2019-04-22T10:02:09.565Z,21.30
2019-04-22T10:04:18.815Z,21.40
2019-04-22T10:06:54.742Z,21.80
2019-04-22T10:09:46.963Z,21.90
2019-04-22T10:12:02.673Z,22.00
2019-04-22T10:14:30.925Z,21.40
2019-04-22T10:17:06.719Z,21.00
2019-04-22T10:19:38.727Z,20.50
2019-04-22T10:22:23.870Z,20.60
2019-04-22T10:24:45.339Z,20.90
2019-04-22T10:27:14.039Z,21.30
2019-04-22T10:29:53.762Z,20.80
2019-04-22T10:32:18.802Z,21.10
2019-04-22T10:34:43.569Z,20.90
2019-04-22T10:37:11.752Z,20.50
2019-04-22T10:39:52.928Z,21.10
2019-04-22T10:42:17.497Z,21.50
2019-04-22T10:44:50.339Z,20.60
2019-04-22T10:47:22.323Z,20.40
2019-04-22T10:49:54.146Z,19.80
2019-04-22T10:52:25.665Z,19.50
2019-04-22T10:54:56.439Z,19.40
2019-04-22T10:57:27.733Z,19.80
2019-04-22T10:59:58.647Z,20.00
2019-04-22T11:02:29.839Z,20.00
2019-04-22T11:05:02.027Z,20.00
2019-04-22T11:07:42.090Z,20.10
2019-04-22T11:10:29.402Z,20.20
2019-04-22T11:12:41.452Z,20.50
2019-04-22T11:15:13.760Z,20.60
2019-04-22T11:17:45.068Z,20.10
2019-04-22T11:20:17.686Z,19.50
2019-04-22T11:22:48.980Z,19.60
2019-04-22T11:25:21.668Z,19.90
2019-04-22T11:27:53.719Z,19.80
2019-04-22T11:30:28.238Z,19.40
2019-04-22T11:33:00.537Z,19.50
2019-04-22T11:35:32.042Z,19.30
2019-04-22T11:38:04.458Z,19.10
2019-04-22T11:43:08.025Z,19.30
2019-04-22T11:45:39.616Z,19.70
2019-04-22T11:48:11.181Z,20.00
2019-04-22T11:50:43.971Z,20.00
2019-04-22T11:53:16.697Z,20.00
2019-04-22T11:55:48.907Z,20.10
2019-04-22T11:58:21.060Z,20.20
2019-04-22T12:00:53.448Z,19.90
2019-04-22T12:03:25.346Z,19.90
2019-04-22T12:05:57.811Z,19.90
2019-04-22T12:08:29.056Z,19.60
2019-04-22T12:11:02.678Z,19.60
2019-04-22T12:13:33.860Z,19.50
2019-04-22T12:18:37.342Z,19.60
2019-04-22T12:21:09.111Z,19.50
2019-04-22T12:23:41.284Z,19.20
2019-04-22T12:26:16.860Z,19.10
2019-04-22T12:28:46.733Z,19.00
2019-04-22T12:31:19.300Z,18.80
2019-04-22T12:33:50.569Z,18.70
2019-04-22T12:36:24.522Z,18.70
2019-04-22T12:38:57.813Z,18.90
2019-04-22T12:41:28.759Z,18.80
2019-04-22T12:44:00.924Z,18.70
2019-04-22T12:49:04.434Z,18.80
2019-04-22T12:51:36.737Z,19.10
2019-04-22T12:54:08.821Z,19.10
2019-04-22T12:56:41.919Z,19.10
2019-04-22T12:59:13.846Z,19.10
2019-04-22T13:01:45.005Z,19.00
2019-04-22T13:04:19.451Z,19.30
2019-04-22T13:06:50.461Z,19.10
2019-04-22T13:09:21.273Z,19.20
2019-04-22T13:11:52.970Z,19.40
2019-04-22T13:14:25.025Z,19.30
2019-04-22T13:16:55.955Z,19.40
2019-04-22T13:19:28.373Z,19.40
2019-04-22T13:22:00.931Z,19.60
2019-04-22T13:24:32.285Z,19.70
2019-04-22T13:27:03.522Z,20.00
2019-04-22T13:29:35.379Z,20.00
2019-04-22T13:32:08.819Z,19.70
2019-04-22T13:34:45.681Z,19.70
2019-04-22T13:37:12.854Z,19.90
2019-04-22T13:39:43.841Z,20.10
2019-04-22T13:42:19.949Z,19.80
2019-04-22T13:44:49.703Z,19.90
2019-04-22T13:47:34.675Z,20.00
2019-04-22T13:50:25.563Z,19.90
2019-04-22T13:52:56.301Z,19.80
2019-04-22T13:55:32.757Z,19.70
2019-04-22T13:57:52.394Z,19.40
2019-04-22T14:00:08.527Z,19.30
2019-04-22T14:03:02.458Z,19.30
2019-04-22T14:05:34.937Z,19.30
2019-04-22T14:08:08.691Z,19.30
2019-04-22T14:10:42.814Z,19.20
2019-04-22T14:13:14.067Z,19.10
2019-04-22T14:15:46.760Z,19.10
2019-04-22T14:18:19.188Z,19.00
2019-04-22T14:20:51.149Z,18.90
2019-04-22T14:23:22.549Z,18.90
2019-04-22T14:25:54.780Z,18.80
2019-04-22T14:28:27.317Z,18.90
2019-04-22T14:30:58.551Z,18.90
2019-04-22T14:33:30.395Z,18.90
2019-04-22T14:36:02.466Z,18.90
2019-04-22T14:38:34.674Z,18.90
2019-04-22T14:41:08.143Z,18.90
2019-04-22T14:44:30.998Z,19.00
2019-04-22T14:49:03.913Z,19.00
2019-04-22T14:51:31.922Z,19.10
2019-04-22T14:54:05.389Z,19.20
2019-04-22T14:56:22.447Z,19.30
2019-04-22T14:58:54.915Z,19.20
2019-04-22T15:01:28.809Z,19.20
2019-04-22T15:04:00.964Z,19.20
2019-04-22T15:06:33.770Z,19.20
2019-04-22T15:09:07.918Z,19.00
2019-04-22T15:11:52.861Z,19.00
2019-04-22T15:14:12.902Z,19.00
2019-04-22T15:17:11.347Z,18.90
2019-04-22T15:19:47.735Z,19.00
2019-04-22T15:22:18.905Z,19.00
2019-04-22T15:24:50.222Z,19.00
2019-04-22T15:27:25.255Z,19.00
2019-04-22T15:29:57.068Z,19.00
2019-04-22T15:32:29.491Z,18.90
2019-04-22T15:35:01.841Z,18.90
2019-04-22T15:37:33.193Z,18.80
2019-04-22T15:40:05.137Z,18.70
2019-04-22T15:42:40.234Z,18.60
2019-04-22T15:45:11.952Z,18.60
2019-04-22T15:47:43.951Z,18.60
2019-04-22T15:50:16.865Z,18.60
2019-04-22T15:52:51.598Z,18.60
2019-04-22T15:55:20.704Z,18.50
2019-04-22T16:10:36.109Z,18.30
2019-04-22T16:29:23.374Z,17.90
2019-04-22T16:31:55.599Z,17.80
2019-04-22T16:34:27.279Z,17.80
2019-04-22T16:37:01.013Z,17.80
2019-04-22T16:39:34.370Z,17.80
2019-04-22T16:42:06.674Z,17.80
2019-04-22T16:44:38.801Z,17.70
2019-04-22T16:47:09.945Z,17.60
2019-04-22T16:49:41.539Z,17.50
2019-04-22T16:52:14.039Z,17.40
2019-04-22T16:54:46.477Z,17.30
2019-04-22T16:57:17.853Z,17.30
2019-04-22T16:59:49.174Z,17.20
2019-04-22T17:02:38.133Z,17.20
2019-04-22T17:05:23.200Z,17.20
2019-04-22T17:07:54.268Z,17.10
2019-04-22T17:10:26.119Z,17.10
2019-04-22T17:13:03.788Z,17.10
2019-04-22T17:15:29.282Z,17.00
2019-04-22T17:18:01.116Z,16.90
2019-04-22T17:20:34.053Z,16.80
2019-04-22T17:23:05.435Z,16.70
2019-04-22T17:25:36.428Z,16.70
2019-04-22T17:28:35.484Z,16.60
2019-04-22T17:31:34.824Z,16.50
2019-04-22T17:34:45.206Z,16.40
2019-04-22T17:37:22.140Z,16.30
2019-04-22T17:40:05.706Z,16.20
2019-04-22T17:42:35.363Z,16.20
2019-04-22T17:45:34.119Z,16.20
2019-04-22T17:48:47.449Z,16.20
2019-04-22T17:54:02.599Z,16.10
2019-04-22T17:56:43.511Z,16.10
2019-04-22T17:59:22.918Z,16.00
2019-04-22T18:02:02.493Z,16.00
2019-04-22T18:04:46.561Z,15.90
2019-04-22T18:07:41.277Z,15.90
2019-04-22T18:13:07.538Z,15.80
2019-04-22T18:16:15.224Z,15.70
2019-04-22T18:19:04.406Z,15.70
2019-04-22T18:21:46.219Z,15.70
2019-04-22T18:24:25.913Z,15.70
2019-04-22T18:27:53.636Z,15.60
2019-04-22T18:30:14.866Z,15.50
2019-04-22T18:32:55.509Z,15.60
2019-04-22T18:35:32.346Z,15.50
2019-04-22T18:38:27.088Z,15.50
2019-04-22T18:41:02.360Z,15.40
2019-04-22T18:43:42.465Z,15.30
2019-04-22T18:46:18.897Z,15.30
2019-04-22T18:48:54.040Z,15.20
2019-04-22T18:51:45.321Z,15.20
2019-04-22T18:54:31.055Z,15.10
2019-04-22T18:57:10.035Z,15.20
2019-04-22T18:59:43.126Z,15.20
2019-04-22T19:02:22.911Z,15.20
2019-04-22T19:05:01.354Z,15.10
2019-04-22T19:07:49.808Z,15.00
2019-04-22T19:10:17.449Z,14.90
2019-04-22T19:13:17.482Z,14.90
2019-04-22T19:15:33.355Z,14.80
2019-04-22T19:18:03.897Z,14.70
2019-04-22T19:23:25.740Z,14.60
2019-04-22T19:25:55.379Z,14.50
2019-04-22T19:28:42.290Z,14.50
2019-04-22T19:31:17.393Z,14.40
2019-04-22T19:39:56.023Z,14.30
2019-04-22T19:42:27.051Z,14.20
2019-04-22T19:44:50.788Z,14.20
2019-04-22T19:50:37.990Z,14.00
2019-04-22T19:56:00.139Z,13.90
2019-04-22T20:01:47.294Z,13.80
2019-04-22T20:05:06.417Z,13.80
2019-04-22T20:07:45.824Z,13.70
2019-04-22T20:10:25.411Z,13.70
2019-04-22T20:13:05.061Z,13.60
2019-04-22T20:24:44.873Z,13.20
2019-04-22T20:27:02.915Z,13.10
2019-04-22T20:29:41.703Z,13.00
2019-04-22T20:32:20.355Z,12.80
2019-04-22T20:35:02.670Z,12.70
2019-04-22T20:37:38.543Z,12.50
2019-04-22T20:40:10.621Z,12.50
2019-04-22T20:42:48.409Z,12.50
2019-04-22T20:45:22.855Z,12.40
2019-04-22T20:47:45.006Z,12.50
2019-04-22T20:50:23.888Z,12.50
2019-04-22T20:53:08.494Z,12.60
2019-04-22T20:55:30.898Z,12.60
2019-04-22T20:58:11.764Z,12.50
2019-04-22T21:00:36.797Z,12.60
2019-04-22T21:03:03.578Z,12.50
2019-04-22T21:05:37.773Z,12.50
2019-04-22T21:08:28.913Z,12.50
2019-04-22T21:10:46.703Z,12.40
2019-04-22T21:13:24.442Z,12.30
2019-04-22T21:16:04.630Z,12.30
2019-04-22T21:18:30.726Z,12.40
2019-04-22T21:21:09.649Z,12.40
2019-04-22T21:23:35.171Z,12.40
2019-04-22T21:26:13.946Z,12.40
2019-04-22T21:28:49.042Z,12.40
2019-04-22T21:31:23.325Z,12.40
2019-04-22T21:33:56.130Z,12.50
2019-04-22T21:36:41.618Z,12.50
2019-04-22T21:39:12.080Z,12.40
2019-04-22T21:41:46.835Z,12.30
2019-04-22T21:44:21.261Z,12.30
2019-04-22T21:47:14.942Z,12.40
2019-04-22T21:49:56.655Z,12.30
2019-04-22T21:52:24.391Z,12.40
2019-04-22T21:55:04.330Z,12.40
2019-04-22T21:57:57.747Z,12.30
2019-04-22T22:00:31.179Z,12.30
2019-04-22T22:02:58.532Z,12.30
2019-04-22T22:05:26.465Z,12.30
2019-04-22T22:07:52.103Z,12.30
2019-04-22T22:10:37.113Z,12.20
2019-04-22T22:13:06.289Z,12.10
2019-04-22T22:15:46.594Z,12.00
2019-04-22T22:18:10.206Z,11.90
2019-04-22T22:21:02.230Z,11.90
2019-04-22T22:23:25.387Z,11.80
2019-04-22T22:25:47.702Z,11.80
2019-04-22T22:28:42.082Z,11.80
2019-04-22T22:31:04.997Z,11.80
2019-04-22T22:33:28.344Z,11.70
2019-04-22T22:36:00.990Z,11.60
2019-04-22T22:38:31.217Z,11.70
2019-04-22T22:40:48.112Z,11.70
2019-04-22T22:43:29.701Z,11.70
2019-04-22T22:46:12.329Z,11.70
2019-04-22T22:48:53.591Z,11.70
2019-04-22T22:51:32.442Z,11.80
2019-04-22T22:54:01.142Z,11.70
2019-04-22T22:56:39.742Z,11.70
2019-04-22T22:59:00.274Z,11.80
2019-04-22T23:01:39.608Z,11.80
2019-04-22T23:04:45.523Z,11.80
2019-04-22T23:07:54.137Z,11.70
2019-04-22T23:11:05.046Z,11.70
2019-04-22T23:14:07.414Z,11.60
2019-04-22T23:16:47.712Z,11.70
2019-04-22T23:19:19.911Z,11.60
2019-04-22T23:22:01.302Z,11.50
2019-04-22T23:25:00.231Z,11.50
2019-04-22T23:27:52.544Z,11.50
2019-04-22T23:31:14.056Z,11.40
2019-04-22T23:34:21.129Z,11.40
2019-04-22T23:37:24.005Z,11.20
2019-04-22T23:40:34.399Z,11.20
2019-04-22T23:43:17.315Z,11.20
2019-04-22T23:45:44.777Z,11.20
2019-04-22T23:48:15.200Z,11.10
2019-04-22T23:50:57.311Z,11.00
2019-04-22T23:54:00.881Z,11.00
2019-04-22T23:56:04.753Z,11.00
2019-04-22T23:59:07.060Z,11.00
